createdAt,value
2018-11-11T00:02:11.077Z,92.80
2018-11-11T00:06:07.811Z,92.90
2018-11-11T00:10:04.305Z,92.80
2018-11-11T00:14:00.905Z,92.80
2018-11-11T00:17:57.431Z,92.80
2018-11-11T00:21:54.126Z,93.20
2018-11-11T00:25:50.626Z,92.90
2018-11-11T00:29:47.746Z,92.90
2018-11-11T00:33:44.367Z,92.80
2018-11-11T00:37:41.131Z,92.90
2018-11-11T00:41:37.657Z,92.90
2018-11-11T00:45:34.411Z,92.80
2018-11-11T00:49:31.094Z,92.80
2018-11-11T00:53:27.857Z,92.90
2018-11-11T00:57:24.466Z,92.90
2018-11-11T01:01:21.068Z,92.90
2018-11-11T01:05:17.699Z,92.90
2018-11-11T01:09:14.304Z,92.90
2018-11-11T01:13:10.868Z,92.90
2018-11-11T01:17:08.741Z,92.90
2018-11-11T01:21:05.469Z,93.00
2018-11-11T01:25:02.387Z,92.80
2018-11-11T01:28:58.869Z,92.90
2018-11-11T01:32:55.575Z,92.90
2018-11-11T01:36:53.124Z,92.90
2018-11-11T01:40:49.892Z,92.90
2018-11-11T01:44:46.531Z,92.80
2018-11-11T01:48:43.197Z,92.90
2018-11-11T01:52:40.193Z,92.90
2018-11-11T01:56:36.850Z,92.80
2018-11-11T02:00:33.430Z,92.90
2018-11-11T02:04:30.075Z,93.20
2018-11-11T02:08:26.596Z,92.90
2018-11-11T02:12:23.297Z,92.90
2018-11-11T02:16:19.839Z,92.90
2018-11-11T02:20:17.806Z,92.90
2018-11-11T02:24:14.256Z,92.90
2018-11-11T02:28:11.031Z,92.90
2018-11-11T02:32:07.577Z,92.90
2018-11-11T02:36:04.248Z,92.90
2018-11-11T02:40:00.812Z,92.90
2018-11-11T02:43:57.186Z,92.90
2018-11-11T02:47:53.789Z,92.90
2018-11-11T02:51:50.394Z,92.90
2018-11-11T02:55:47.861Z,93.00
2018-11-11T02:59:44.722Z,93.30
2018-11-11T03:03:41.560Z,93.00
2018-11-11T03:07:38.536Z,93.00
2018-11-11T03:11:35.140Z,93.00
2018-11-11T03:15:32.147Z,93.00
2018-11-11T03:19:28.889Z,93.00
2018-11-11T03:23:25.309Z,92.90
2018-11-11T03:27:22.247Z,93.00
2018-11-11T03:31:18.843Z,92.90
2018-11-11T03:35:15.725Z,92.90
2018-11-11T03:39:13.517Z,93.00
2018-11-11T03:43:10.089Z,93.00
2018-11-11T03:47:07.029Z,93.00
2018-11-11T03:51:03.563Z,93.00
2018-11-11T03:55:00.135Z,93.00
2018-11-11T03:58:56.894Z,93.00
2018-11-11T04:02:53.327Z,93.00
2018-11-11T04:06:49.955Z,93.00
2018-11-11T04:10:46.486Z,93.00
2018-11-11T04:14:42.958Z,93.10
2018-11-11T04:18:39.941Z,93.00
2018-11-11T04:22:36.548Z,93.00
2018-11-11T04:26:33.336Z,93.00
2018-11-11T04:30:30.203Z,93.00
2018-11-11T04:34:26.627Z,93.00
2018-11-11T04:38:23.161Z,93.10
2018-11-11T04:42:19.579Z,93.00
2018-11-11T04:46:16.148Z,93.10
2018-11-11T04:50:14.891Z,93.10
2018-11-11T04:54:11.938Z,93.00
2018-11-11T04:58:08.915Z,93.00
2018-11-11T05:02:16.295Z,93.00
2018-11-11T05:06:13.707Z,93.00
2018-11-11T05:10:10.954Z,93.00
2018-11-11T05:14:07.635Z,93.00
2018-11-11T05:18:04.245Z,93.10
2018-11-11T05:22:01.064Z,93.00
2018-11-11T05:25:58.701Z,93.00
2018-11-11T05:29:55.663Z,93.00
2018-11-11T05:33:52.259Z,93.00
2018-11-11T05:37:49.002Z,92.90
2018-11-11T05:41:46.594Z,92.90
2018-11-11T05:45:43.279Z,92.90
2018-11-11T05:49:39.820Z,93.00
2018-11-11T05:53:36.522Z,93.00
2018-11-11T05:57:33.395Z,93.00
2018-11-11T06:01:30.087Z,93.00
2018-11-11T06:05:26.747Z,93.00
2018-11-11T06:09:23.392Z,93.00
2018-11-11T06:13:20.109Z,93.00
2018-11-11T06:17:16.796Z,93.00
2018-11-11T06:21:13.411Z,93.00
2018-11-11T06:25:10.735Z,93.00
2018-11-11T06:29:07.658Z,93.10
2018-11-11T06:33:04.445Z,93.00
2018-11-11T06:37:01.202Z,93.00
2018-11-11T06:40:58.088Z,93.00
2018-11-11T06:44:54.932Z,93.00
2018-11-11T06:48:51.620Z,92.70
2018-11-11T06:52:48.464Z,93.00
2018-11-11T06:56:45.188Z,93.00
2018-11-11T07:00:41.818Z,93.00
2018-11-11T07:04:38.462Z,93.00
2018-11-11T07:08:35.059Z,93.00
2018-11-11T07:12:31.535Z,92.80
2018-11-11T07:16:28.382Z,92.50
2018-11-11T07:20:24.799Z,92.40
2018-11-11T07:24:21.512Z,92.30
2018-11-11T07:28:18.154Z,92.30
2018-11-11T07:32:14.925Z,92.20
2018-11-11T07:36:12.007Z,92.10
2018-11-11T07:40:12.213Z,92.10
2018-11-11T07:44:08.881Z,92.00
2018-11-11T07:48:05.885Z,91.80
2018-11-11T07:52:03.435Z,91.80
2018-11-11T07:56:00.209Z,91.70
2018-11-11T07:59:57.487Z,91.70
2018-11-11T08:03:54.120Z,91.70
2018-11-11T08:07:50.716Z,91.70
2018-11-11T08:12:00.961Z,91.60
2018-11-11T08:15:57.616Z,91.60
2018-11-11T08:19:54.216Z,91.60
2018-11-11T08:23:50.851Z,92.40
2018-11-11T08:27:47.487Z,92.30
2018-11-11T08:31:44.322Z,92.00
2018-11-11T08:35:41.544Z,91.40
2018-11-11T08:39:38.077Z,90.80
2018-11-11T08:43:34.663Z,90.70
2018-11-11T08:47:31.810Z,90.50
2018-11-11T08:51:28.442Z,90.30
2018-11-11T08:55:25.021Z,90.10
2018-11-11T08:59:21.577Z,90.10
2018-11-11T09:03:18.452Z,90.00
2018-11-11T09:07:15.157Z,90.00
2018-11-11T09:11:12.351Z,89.80
2018-11-11T09:15:12.062Z,89.50
2018-11-11T09:19:08.578Z,88.80
2018-11-11T09:23:05.098Z,88.60
2018-11-11T09:27:01.734Z,88.40
2018-11-11T09:30:58.256Z,88.10
2018-11-11T09:34:55.374Z,87.80
2018-11-11T09:38:52.134Z,87.70
2018-11-11T09:42:49.255Z,87.80
2018-11-11T09:46:45.993Z,87.60
2018-11-11T09:50:42.558Z,87.50
2018-11-11T09:54:39.347Z,87.50
2018-11-11T09:58:36.411Z,87.50
2018-11-11T10:02:33.185Z,87.40
2018-11-11T10:06:39.040Z,87.30
2018-11-11T10:10:57.475Z,88.00
2018-11-11T10:15:28.963Z,87.10
2018-11-11T10:21:32.824Z,86.30
2018-11-11T10:25:43.875Z,86.40
2018-11-11T10:29:45.755Z,86.60
2018-11-11T10:35:49.614Z,86.50
2018-11-11T10:39:53.451Z,86.50
2018-11-11T10:43:55.630Z,85.80
2018-11-11T10:48:07.833Z,86.00
2018-11-11T10:52:04.790Z,85.60
2018-11-11T10:56:01.612Z,85.30
2018-11-11T10:59:58.511Z,85.50
2018-11-11T11:03:55.290Z,85.40
2018-11-11T11:07:52.059Z,85.60
2018-11-11T11:11:48.627Z,85.40
2018-11-11T11:15:45.214Z,85.10
2018-11-11T11:19:42.139Z,84.90
2018-11-11T11:23:39.098Z,84.70
2018-11-11T11:27:35.876Z,84.80
2018-11-11T11:31:32.754Z,84.80
2018-11-11T11:35:29.510Z,85.10
2018-11-11T11:39:26.182Z,84.90
2018-11-11T11:43:22.993Z,85.00
2018-11-11T11:47:19.703Z,85.20
2018-11-11T11:51:16.803Z,85.30
2018-11-11T11:55:13.902Z,85.10
2018-11-11T11:59:10.655Z,85.10
2018-11-11T12:03:07.426Z,85.00
2018-11-11T12:07:04.923Z,84.70
2018-11-11T12:11:02.124Z,84.60
2018-11-11T12:14:58.775Z,84.60
2018-11-11T12:18:56.468Z,85.30
2018-11-11T12:22:58.492Z,84.70
2018-11-11T12:26:55.669Z,84.30
2018-11-11T12:30:52.808Z,84.30
2018-11-11T12:34:49.370Z,82.90
2018-11-11T12:38:46.141Z,82.10
2018-11-11T12:42:44.035Z,82.80
2018-11-11T12:46:40.932Z,83.30
2018-11-11T12:50:37.622Z,83.30
2018-11-11T12:54:34.396Z,83.20
2018-11-11T12:58:31.178Z,83.00
2018-11-11T13:02:28.116Z,83.00
2018-11-11T13:06:24.865Z,83.00
2018-11-11T13:10:21.581Z,84.10
2018-11-11T13:14:18.216Z,84.80
2018-11-11T13:18:14.992Z,85.20
2018-11-11T13:22:11.845Z,85.80
2018-11-11T13:26:09.128Z,86.00
2018-11-11T13:30:07.156Z,86.20
2018-11-11T13:34:03.866Z,86.40
2018-11-11T13:38:00.584Z,86.50
2018-11-11T13:41:57.290Z,86.80
2018-11-11T13:45:53.976Z,87.10
2018-11-11T13:49:50.526Z,87.30
2018-11-11T13:53:46.958Z,87.60
2018-11-11T13:57:44.140Z,87.90
2018-11-11T14:01:40.769Z,88.10
2018-11-11T14:05:37.408Z,88.30
2018-11-11T14:09:33.936Z,88.50
2018-11-11T14:13:34.049Z,88.70
2018-11-11T14:17:30.543Z,88.70
2018-11-11T14:21:27.269Z,88.90
2018-11-11T14:25:27.537Z,89.10
2018-11-11T14:29:24.166Z,89.10
2018-11-11T14:33:20.463Z,89.20
2018-11-11T14:37:16.923Z,89.30
2018-11-11T14:41:13.604Z,89.50
2018-11-11T14:45:13.027Z,89.50
2018-11-11T14:49:10.407Z,89.60
2018-11-11T14:53:07.053Z,89.70
2018-11-11T14:57:03.779Z,89.90
2018-11-11T15:01:00.430Z,90.00
2018-11-11T15:04:57.143Z,90.00
2018-11-11T15:08:53.871Z,90.00
2018-11-11T15:12:50.684Z,90.00
2018-11-11T15:16:48.481Z,90.10
2018-11-11T15:20:45.292Z,90.10
2018-11-11T15:24:42.424Z,90.20
2018-11-11T15:28:40.601Z,90.50
2018-11-11T15:32:37.770Z,90.20
2018-11-11T15:36:34.318Z,90.20
2018-11-11T15:40:34.218Z,90.20
2018-11-11T15:44:30.865Z,90.30
2018-11-11T15:48:27.851Z,90.30
2018-11-11T15:52:25.135Z,90.30
2018-11-11T15:56:21.776Z,90.30
2018-11-11T16:00:20.832Z,90.40
2018-11-11T16:04:18.235Z,90.40
2018-11-11T16:08:15.217Z,90.40
2018-11-11T16:12:12.325Z,90.40
2018-11-11T16:16:09.010Z,90.40
2018-11-11T16:20:08.492Z,90.50
2018-11-11T16:24:05.563Z,90.40
2018-11-11T16:28:02.397Z,90.40
2018-11-11T16:31:59.114Z,90.40
2018-11-11T16:35:56.050Z,90.40
2018-11-11T16:39:52.712Z,90.50
2018-11-11T16:43:49.204Z,90.50
2018-11-11T16:47:45.928Z,90.50
2018-11-11T16:51:42.435Z,90.50
2018-11-11T16:55:39.826Z,90.50
2018-11-11T16:59:36.462Z,90.50
2018-11-11T17:03:33.211Z,90.50
2018-11-11T17:07:30.019Z,90.50
2018-11-11T17:11:26.702Z,90.50
2018-11-11T17:15:25.186Z,90.50
2018-11-11T17:19:22.071Z,90.50
2018-11-11T17:23:18.810Z,90.80
2018-11-11T17:27:15.513Z,90.50
2018-11-11T17:31:12.079Z,90.50
2018-11-11T17:35:09.571Z,90.50
2018-11-11T17:39:11.004Z,90.50
2018-11-11T17:43:07.797Z,90.50
2018-11-11T17:47:04.500Z,90.50
2018-11-11T17:51:01.377Z,90.40
2018-11-11T17:54:58.656Z,90.40
2018-11-11T17:58:55.245Z,90.40
2018-11-11T18:02:52.061Z,90.40
2018-11-11T18:06:48.579Z,90.40
2018-11-11T18:10:45.748Z,90.40
2018-11-11T18:14:42.225Z,90.40
2018-11-11T18:18:39.117Z,90.70
2018-11-11T18:22:35.568Z,90.40
2018-11-11T18:26:32.300Z,90.50
2018-11-11T18:30:31.027Z,90.40
2018-11-11T18:34:27.977Z,90.40
2018-11-11T18:38:24.521Z,90.40
2018-11-11T18:42:22.433Z,90.40
2018-11-11T18:46:19.065Z,90.40
2018-11-11T18:50:19.362Z,90.20
2018-11-11T18:54:16.086Z,90.70
2018-11-11T18:58:12.790Z,90.50
2018-11-11T19:02:09.534Z,90.50
2018-11-11T19:06:06.589Z,90.50
2018-11-11T19:10:03.372Z,90.60
2018-11-11T19:14:00.071Z,90.60
2018-11-11T19:17:56.669Z,90.60
2018-11-11T19:21:54.249Z,90.60
2018-11-11T19:25:50.829Z,90.60
2018-11-11T19:29:47.767Z,90.60
2018-11-11T19:33:44.328Z,90.60
2018-11-11T19:37:41.110Z,90.60
2018-11-11T19:41:38.045Z,90.60
2018-11-11T19:45:34.655Z,90.70
2018-11-11T19:49:31.294Z,90.70
2018-11-11T19:53:27.910Z,90.70
2018-11-11T19:57:25.678Z,90.80
2018-11-11T20:01:22.530Z,90.80
2018-11-11T20:05:19.637Z,90.80
2018-11-11T20:09:16.136Z,90.80
2018-11-11T20:13:13.006Z,90.80
2018-11-11T20:17:09.741Z,90.70
2018-11-11T20:21:06.560Z,90.80
2018-11-11T20:25:03.164Z,90.80
2018-11-11T20:28:59.882Z,90.80
2018-11-11T20:32:56.475Z,90.80
2018-11-11T20:36:52.980Z,90.80
2018-11-11T20:40:49.737Z,90.90
2018-11-11T20:44:46.170Z,90.80
2018-11-11T20:48:42.801Z,90.80
2018-11-11T20:52:39.976Z,90.60
2018-11-11T20:56:36.601Z,90.40
2018-11-11T21:00:35.766Z,90.30
2018-11-11T21:04:32.254Z,90.20
2018-11-11T21:08:29.407Z,90.10
2018-11-11T21:12:26.092Z,90.30
2018-11-11T21:16:23.097Z,89.80
2018-11-11T21:20:21.940Z,88.50
2018-11-11T21:24:18.993Z,88.30
2018-11-11T21:28:15.630Z,88.70
2018-11-11T21:32:12.927Z,88.00
2018-11-11T21:36:09.645Z,87.90
2018-11-11T21:40:09.185Z,87.80
2018-11-11T21:44:05.934Z,87.70
2018-11-11T21:48:02.541Z,87.40
2018-11-11T21:51:59.154Z,87.20
2018-11-11T21:55:55.478Z,87.20
2018-11-11T21:59:52.220Z,87.20
2018-11-11T22:03:48.675Z,87.30
2018-11-11T22:07:44.962Z,87.40
2018-11-11T22:11:41.561Z,87.30
2018-11-11T22:15:38.252Z,87.20
2018-11-11T22:19:34.927Z,86.90
2018-11-11T22:23:32.706Z,87.40
2018-11-11T22:27:29.365Z,86.50
2018-11-11T22:31:26.053Z,87.10
2018-11-11T22:35:22.561Z,86.80
2018-11-11T22:39:25.841Z,86.30
2018-11-11T22:43:22.465Z,86.20
2018-11-11T22:47:18.721Z,86.10
2018-11-11T22:51:15.406Z,86.20
2018-11-11T22:55:12.299Z,86.30
2018-11-11T22:59:09.382Z,86.00
2018-11-11T23:03:06.057Z,86.00
2018-11-11T23:07:02.378Z,85.70
2018-11-11T23:10:58.934Z,85.80
2018-11-11T23:14:55.863Z,85.70
2018-11-11T23:18:52.496Z,85.90
2018-11-11T23:22:49.085Z,85.60
2018-11-11T23:26:45.848Z,85.50
2018-11-11T23:30:42.879Z,85.30
2018-11-11T23:34:39.504Z,85.10
2018-11-11T23:38:36.520Z,85.00
2018-11-11T23:42:33.512Z,84.90
2018-11-11T23:46:30.139Z,85.00
2018-11-11T23:50:26.730Z,85.10
2018-11-11T23:54:23.343Z,84.90
2018-11-11T23:58:19.936Z,85.00
